Marinicki — 9HWU9 — position and weather

sailwx.info

Track history (hours):
 
Tides and Currents Weather Stations Pressure Air Temp Water Temp Dewpoint Dewpoint Depression Visibility Wind Speed Wind Dir Waves Ship Positions

Marinicki

Last reported at 2016-May-06 07:19 UTC. Time now 2016-May-30 01:04 UTC.
Position N 35°58' W 005°36'.
Warning: this ship's position is 23 days out of date.

Length 225 m; draft 8.4 m.

Type: Cargo ship. MMSI: 249650000.

Date/timePositionNaut miles runAvg speedWind from/ knotsBaromVisibWave heightAir tempDewpointWater temp
2016-May-06 07:19N 35°58' W 005°36'810.4
2016-May-06 06:33N 36°00' W 005°27'6 5.5
2016-May-06 05:33N 36°06' W 005°25'0 0.0
2016-May-06 04:33N 36°06' W 005°25'0 0.0
2016-May-06 03:33N 36°06' W 005°25'0 0.0
2016-May-06 02:33N 36°06' W 005°25'0 0.0
2016-May-06 01:33N 36°06' W 005°25'0 0.0
2016-May-06 00:33N 36°06' W 005°25'0 0.0
2016-May-05 23:33N 36°06' W 005°25'0 0.0
2016-May-05 22:33N 36°06' W 005°25'0 0.1
2016-May-05 21:33N 36°06' W 005°25'0 0.0
2016-May-05 20:33N 36°06' W 005°25'0 0.0
2016-May-05 19:21N 36°06' W 005°25'0 0.0
2016-May-05 18:33N 36°06' W 005°25'0 0.0
2016-May-05 17:27N 36°06' W 005°25'0 0.0
2016-May-05 16:33N 36°06' W 005°25'0 0.1
2016-May-05 15:33N 36°06' W 005°25'0 0.0
2016-May-05 14:27N 36°06' W 005°25'0 0.0
2016-May-05 13:27N 36°06' W 005°25'0 0.1
2016-May-05 12:33N 36°06' W 005°25'0 0.0
2016-May-05 11:27N 36°06' W 005°25'0 0.0
2016-May-05 10:33N 36°06' W 005°25'0 0.1
2016-May-05 09:33N 36°06' W 005°25'0 0.0
2016-May-05 08:33N 36°06' W 005°25'0 0.0
2016-May-05 07:33N 36°06' W 005°25'1 1.0
2016-May-05 06:33N 36°05' W 005°24'3 3.5
2016-May-05 05:33N 36°04' W 005°20'15213.4
2016-May-04 18:11N 36°26' W 002°13'6913.9
2016-May-04 13:12N 36°36' W 000°48'4014.6
2016-May-04 10:30N 36°43' E 000°01'1313.6
2016-May-04 09:33N 36°45' E 000°17'1414.1
2016-May-04 08:33N 36°47' E 000°34'1614.2
2016-May-04 07:24N 36°49' E 000°54'1414.0
2016-May-04 06:24N 36°51' E 001°12'1113.7
2016-May-04 05:33N 36°53' E 001°26'1413.5
2016-May-04 04:33N 36°56' E 001°43'1313.2
2016-May-04 03:34N 36°57' E 001°59'1413.5
2016-May-04 02:33N 36°59' E 002°16'1414.3
2016-May-04 01:33N 37°02' E 002°33'1514.5
2016-May-04 00:33N 37°04' E 002°52'1414.0
2016-May-03 23:33N 37°06' E 003°09'1413.7
2016-May-03 22:33N 37°08' E 003°26'1413.8
2016-May-03 21:33N 37°10' E 003°43'46810.0
2016-May-01 22:29N 36°44' E 013°28'1112.2
2016-May-01 21:34N 36°41' E 013°42'1212.1
2016-May-01 20:34N 36°38' E 013°56'1212.0
2016-May-01 19:33N 36°34' E 014°11'1212.1
2016-May-01 18:33N 36°30' E 014°25'1312.6
2016-May-01 17:33N 36°30' E 014°41'5212.1
2016-May-01 13:17N 36°50' E 015°40'912.0
2016-May-01 12:33N 36°57' E 015°47'1212.0
2016-May-01 11:33N 37°06' E 015°57'1211.7
2016-May-01 10:33N 37°15' E 016°06'1111.5
2016-May-01 09:33N 37°24' E 016°15'7512.4
2016-May-01 03:33N 38°22' E 017°14'44410.8
2016-Apr-29 10:33N 44°60' E 012°48'1111.0
2016-Apr-29 09:33N 45°08' E 012°39'1111.4
2016-Apr-29 08:33N 45°16' E 012°27'10 9.8
2016-Apr-29 07:33N 45°22' E 012°15'5 4.5
2016-Apr-29 06:33N 45°26' E 012°15'0 0.0
2016-Apr-29 05:32N 45°26' E 012°15'0 0.0
2016-Apr-29 04:32N 45°26' E 012°15'0 0.0
2016-Apr-29 03:32N 45°26' E 012°15'0 0.0
2016-Apr-29 02:32N 45°26' E 012°15'0 0.0
2016-Apr-29 01:32N 45°26' E 012°15'0 0.0
2016-Apr-29 00:29N 45°26' E 012°15'0 0.0
2016-Apr-28 23:29N 45°26' E 012°15'0 0.0
2016-Apr-28 22:32N 45°26' E 012°15'0 0.0
2016-Apr-28 21:29N 45°26' E 012°15'0 0.0
2016-Apr-28 20:32N 45°26' E 012°15'0 0.0
2016-Apr-28 19:29N 45°26' E 012°15'0 0.0
2016-Apr-28 18:32N 45°26' E 012°15'0 0.0
2016-Apr-28 17:32N 45°26' E 012°15'0 0.0
2016-Apr-28 16:29N 45°26' E 012°15'0 0.0
2016-Apr-28 15:32N 45°26' E 012°15'0 0.0
2016-Apr-28 14:32N 45°26' E 012°15'0 0.0
2016-Apr-28 12:32N 45°26' E 012°15'0 0.0
2016-Apr-28 11:32N 45°26' E 012°15'0 0.0
2016-Apr-28 10:32N 45°26' E 012°15'0 0.0
2016-Apr-28 09:32N 45°26' E 012°15'0 0.0
2016-Apr-28 08:32N 45°26' E 012°15'0 0.0
2016-Apr-28 07:32N 45°26' E 012°15'0 0.0
2016-Apr-28 06:32N 45°26' E 012°15'0 0.0
2016-Apr-28 05:32N 45°26' E 012°15'0 0.0
2016-Apr-28 04:32N 45°26' E 012°15'0 0.0
2016-Apr-28 03:20N 45°26' E 012°15'0 0.0
2016-Apr-28 02:32N 45°26' E 012°15'0 0.0
2016-Apr-28 01:20N 45°26' E 012°15'0 0.0
2016-Apr-28 00:32N 45°26' E 012°15'0 0.0
2016-Apr-27 23:32N 45°26' E 012°15'0 0.0
2016-Apr-27 22:32N 45°26' E 012°15'0 0.0
2016-Apr-27 21:32N 45°26' E 012°15'0 0.0
2016-Apr-27 20:32N 45°26' E 012°15'0 0.0
2016-Apr-27 19:32N 45°26' E 012°15'0 0.0
2016-Apr-27 18:32N 45°26' E 012°15'0 0.0
2016-Apr-27 17:32N 45°26' E 012°15'0 0.0
2016-Apr-27 16:29N 45°26' E 012°15'0 0.0
2016-Apr-27 15:32N 45°26' E 012°15'0 0.0
2016-Apr-27 14:32N 45°26' E 012°15'0 0.0
2016-Apr-27 13:32N 45°26' E 012°15'0 0.0
2016-Apr-27 12:29N 45°26' E 012°15'0 0.0
2016-Apr-27 11:32N 45°26' E 012°15'0 0.0
2016-Apr-27 10:32N 45°26' E 012°15'0 0.0
2016-Apr-27 09:32N 45°26' E 012°15'0 0.0
2016-Apr-27 08:32N 45°26' E 012°15'0 0.0
2016-Apr-27 07:32N 45°26' E 012°15'0 0.0
2016-Apr-27 06:32N 45°26' E 012°15'0 0.0
2016-Apr-27 05:29N 45°26' E 012°15'0 0.0
2016-Apr-27 04:32N 45°26' E 012°15'0 0.0
2016-Apr-27 03:32N 45°26' E 012°15'0 0.0
2016-Apr-27 02:32N 45°26' E 012°15'0 0.0
2016-Apr-27 01:23N 45°26' E 012°15'0 0.0
2016-Apr-27 00:17N 45°26' E 012°15'0 0.0
2016-Apr-26 23:20N 45°26' E 012°15'0 0.0
2016-Apr-26 22:20N 45°26' E 012°15'0 0.0
2016-Apr-26 21:20N 45°26' E 012°15'0 0.0
2016-Apr-26 20:32N 45°26' E 012°15'0 0.0
2016-Apr-26 19:32N 45°26' E 012°15'0 0.0
2016-Apr-26 18:32N 45°26' E 012°15'0 0.0
2016-Apr-26 17:32N 45°26' E 012°15'0 0.0
2016-Apr-26 16:32N 45°26' E 012°15'0 0.0
2016-Apr-26 15:32N 45°26' E 012°15'0 0.0
2016-Apr-26 14:32N 45°26' E 012°15'0 0.0
2016-Apr-26 13:32N 45°26' E 012°15'0 0.0
2016-Apr-26 12:32N 45°26' E 012°15'0 0.0
2016-Apr-26 11:32N 45°26' E 012°15'0 0.0
2016-Apr-26 10:32N 45°26' E 012°15'1 0.9
2016-Apr-26 09:33N 45°25' E 012°16'6 6.4
2016-Apr-26 08:33N 45°20' E 012°20'  
Track history (hours):
 
Tides and Currents Weather Stations Pressure Air Temp Water Temp Dewpoint Dewpoint Depression Visibility Wind Speed Wind Dir Waves Ship Positions

Marinicki

Last reported at 2016-May-06 07:19 UTC. Time now 2016-May-30 01:04 UTC.
Position N 35°58' W 005°36'.
Warning: this ship's position is 23 days out of date.

Length 225 m; draft 8.4 m.

Type: Cargo ship. MMSI: 249650000.

Date/timePositionNaut miles runAvg speedWind from/ knotsBaromVisibWave heightAir tempDewpointWater temp
2016-May-06 07:19N 35°58' W 005°36'810.4
2016-May-06 06:33N 36°00' W 005°27'6 5.5
2016-May-06 05:33N 36°06' W 005°25'0 0.0
2016-May-06 04:33N 36°06' W 005°25'0 0.0
2016-May-06 03:33N 36°06' W 005°25'0 0.0
2016-May-06 02:33N 36°06' W 005°25'0 0.0
2016-May-06 01:33N 36°06' W 005°25'0 0.0
2016-May-06 00:33N 36°06' W 005°25'0 0.0
2016-May-05 23:33N 36°06' W 005°25'0 0.0
2016-May-05 22:33N 36°06' W 005°25'0 0.1
2016-May-05 21:33N 36°06' W 005°25'0 0.0
2016-May-05 20:33N 36°06' W 005°25'0 0.0
2016-May-05 19:21N 36°06' W 005°25'0 0.0
2016-May-05 18:33N 36°06' W 005°25'0 0.0
2016-May-05 17:27N 36°06' W 005°25'0 0.0
2016-May-05 16:33N 36°06' W 005°25'0 0.1
2016-May-05 15:33N 36°06' W 005°25'0 0.0
2016-May-05 14:27N 36°06' W 005°25'0 0.0
2016-May-05 13:27N 36°06' W 005°25'0 0.1
2016-May-05 12:33N 36°06' W 005°25'0 0.0
2016-May-05 11:27N 36°06' W 005°25'0 0.0
2016-May-05 10:33N 36°06' W 005°25'0 0.1
2016-May-05 09:33N 36°06' W 005°25'0 0.0
2016-May-05 08:33N 36°06' W 005°25'0 0.0
2016-May-05 07:33N 36°06' W 005°25'1 1.0
2016-May-05 06:33N 36°05' W 005°24'3 3.5
2016-May-05 05:33N 36°04' W 005°20'15213.4
2016-May-04 18:11N 36°26' W 002°13'6913.9
2016-May-04 13:12N 36°36' W 000°48'4014.6
2016-May-04 10:30N 36°43' E 000°01'1313.6
2016-May-04 09:33N 36°45' E 000°17'1414.1
2016-May-04 08:33N 36°47' E 000°34'1614.2
2016-May-04 07:24N 36°49' E 000°54'1414.0
2016-May-04 06:24N 36°51' E 001°12'1113.7
2016-May-04 05:33N 36°53' E 001°26'1413.5
2016-May-04 04:33N 36°56' E 001°43'1313.2
2016-May-04 03:34N 36°57' E 001°59'1413.5
2016-May-04 02:33N 36°59' E 002°16'1414.3
2016-May-04 01:33N 37°02' E 002°33'1514.5
2016-May-04 00:33N 37°04' E 002°52'1414.0
2016-May-03 23:33N 37°06' E 003°09'1413.7
2016-May-03 22:33N 37°08' E 003°26'1413.8
2016-May-03 21:33N 37°10' E 003°43'46810.0
2016-May-01 22:29N 36°44' E 013°28'1112.2
2016-May-01 21:34N 36°41' E 013°42'1212.1
2016-May-01 20:34N 36°38' E 013°56'1212.0
2016-May-01 19:33N 36°34' E 014°11'1212.1
2016-May-01 18:33N 36°30' E 014°25'1312.6
2016-May-01 17:33N 36°30' E 014°41'5212.1
2016-May-01 13:17N 36°50' E 015°40'912.0
2016-May-01 12:33N 36°57' E 015°47'1212.0
2016-May-01 11:33N 37°06' E 015°57'1211.7
2016-May-01 10:33N 37°15' E 016°06'1111.5
2016-May-01 09:33N 37°24' E 016°15'7512.4
2016-May-01 03:33N 38°22' E 017°14'44410.8
2016-Apr-29 10:33N 44°60' E 012°48'1111.0
2016-Apr-29 09:33N 45°08' E 012°39'1111.4
2016-Apr-29 08:33N 45°16' E 012°27'10 9.8
2016-Apr-29 07:33N 45°22' E 012°15'5 4.5
2016-Apr-29 06:33N 45°26' E 012°15'0 0.0
2016-Apr-29 05:32N 45°26' E 012°15'0 0.0
2016-Apr-29 04:32N 45°26' E 012°15'0 0.0
2016-Apr-29 03:32N 45°26' E 012°15'0 0.0
2016-Apr-29 02:32N 45°26' E 012°15'0 0.0
2016-Apr-29 01:32N 45°26' E 012°15'0 0.0
2016-Apr-29 00:29N 45°26' E 012°15'0 0.0
2016-Apr-28 23:29N 45°26' E 012°15'0 0.0
2016-Apr-28 22:32N 45°26' E 012°15'0 0.0
2016-Apr-28 21:29N 45°26' E 012°15'0 0.0
2016-Apr-28 20:32N 45°26' E 012°15'0 0.0
2016-Apr-28 19:29N 45°26' E 012°15'0 0.0
2016-Apr-28 18:32N 45°26' E 012°15'0 0.0
2016-Apr-28 17:32N 45°26' E 012°15'0 0.0
2016-Apr-28 16:29N 45°26' E 012°15'0 0.0
2016-Apr-28 15:32N 45°26' E 012°15'0 0.0
2016-Apr-28 14:32N 45°26' E 012°15'0 0.0
2016-Apr-28 12:32N 45°26' E 012°15'0 0.0
2016-Apr-28 11:32N 45°26' E 012°15'0 0.0
2016-Apr-28 10:32N 45°26' E 012°15'0 0.0
2016-Apr-28 09:32N 45°26' E 012°15'0 0.0
2016-Apr-28 08:32N 45°26' E 012°15'0 0.0
2016-Apr-28 07:32N 45°26' E 012°15'0 0.0
2016-Apr-28 06:32N 45°26' E 012°15'0 0.0
2016-Apr-28 05:32N 45°26' E 012°15'0 0.0
2016-Apr-28 04:32N 45°26' E 012°15'0 0.0
2016-Apr-28 03:20N 45°26' E 012°15'0 0.0
2016-Apr-28 02:32N 45°26' E 012°15'0 0.0
2016-Apr-28 01:20N 45°26' E 012°15'0 0.0
2016-Apr-28 00:32N 45°26' E 012°15'0 0.0
2016-Apr-27 23:32N 45°26' E 012°15'0 0.0
2016-Apr-27 22:32N 45°26' E 012°15'0 0.0
2016-Apr-27 21:32N 45°26' E 012°15'0 0.0
2016-Apr-27 20:32N 45°26' E 012°15'0 0.0
2016-Apr-27 19:32N 45°26' E 012°15'0 0.0
2016-Apr-27 18:32N 45°26' E 012°15'0 0.0
2016-Apr-27 17:32N 45°26' E 012°15'0 0.0
2016-Apr-27 16:29N 45°26' E 012°15'0 0.0
2016-Apr-27 15:32N 45°26' E 012°15'0 0.0
2016-Apr-27 14:32N 45°26' E 012°15'0 0.0
2016-Apr-27 13:32N 45°26' E 012°15'0 0.0
2016-Apr-27 12:29N 45°26' E 012°15'0 0.0
2016-Apr-27 11:32N 45°26' E 012°15'0 0.0
2016-Apr-27 10:32N 45°26' E 012°15'0 0.0
2016-Apr-27 09:32N 45°26' E 012°15'0 0.0
2016-Apr-27 08:32N 45°26' E 012°15'0 0.0
2016-Apr-27 07:32N 45°26' E 012°15'0 0.0
2016-Apr-27 06:32N 45°26' E 012°15'0 0.0
2016-Apr-27 05:29N 45°26' E 012°15'0 0.0
2016-Apr-27 04:32N 45°26' E 012°15'0 0.0
2016-Apr-27 03:32N 45°26' E 012°15'0 0.0
2016-Apr-27 02:32N 45°26' E 012°15'0 0.0
2016-Apr-27 01:23N 45°26' E 012°15'0 0.0
2016-Apr-27 00:17N 45°26' E 012°15'0 0.0
2016-Apr-26 23:20N 45°26' E 012°15'0 0.0
2016-Apr-26 22:20N 45°26' E 012°15'0 0.0
2016-Apr-26 21:20N 45°26' E 012°15'0 0.0
2016-Apr-26 20:32N 45°26' E 012°15'0 0.0
2016-Apr-26 19:32N 45°26' E 012°15'0 0.0
2016-Apr-26 18:32N 45°26' E 012°15'0 0.0
2016-Apr-26 17:32N 45°26' E 012°15'0 0.0
2016-Apr-26 16:32N 45°26' E 012°15'0 0.0
2016-Apr-26 15:32N 45°26' E 012°15'0 0.0
2016-Apr-26 14:32N 45°26' E 012°15'0 0.0
2016-Apr-26 13:32N 45°26' E 012°15'0 0.0
2016-Apr-26 12:32N 45°26' E 012°15'0 0.0
2016-Apr-26 11:32N 45°26' E 012°15'0 0.0
2016-Apr-26 10:32N 45°26' E 012°15'1 0.9
2016-Apr-26 09:33N 45°25' E 012°16'6 6.4
2016-Apr-26 08:33N 45°20' E 012°20'  

Dump ship's entire track history